Time;durP1;ratioP1;P1;durP2;ratioP2;P2;SDS_P1;SDS_P2;PMS_P1;PMS_P2;Temp;Humidity;BMP_temperature;BMP_pressure;BME280_temperature;BME280_humidity;BME280_pressure;Samples;Min_cycle;Max_cycle;Signal;HPM_P1;HPM_P2
2022/10/31 00:00:22;;;;;;;7.82;5.18;;;;;;;;;;5103269;28;20417;-70
2022/10/31 00:02:48;;;;;;;8.05;5.30;;;;;;;;;;5103244;28;20199;-70
2022/10/31 00:05:15;;;;;;;10.20;5.93;;;;;;;;;;5103369;28;20196;-70
2022/10/31 00:07:42;;;;;;;9.20;5.30;;;;;;;;;;5103270;28;20203;-70
2022/10/31 00:10:09;;;;;;;9.57;5.35;;;;;;;;;;5103493;28;20223;-70
2022/10/31 00:12:35;;;;;;;11.25;6.25;;;;;;;;;;5103346;28;20203;-70
2022/10/31 00:15:02;;;;;;;8.50;5.70;;;;;;;;;;5103061;28;20217;-70
2022/10/31 00:17:28;;;;;;;10.18;5.43;;;;;;;;;;5102814;28;20242;-70
2022/10/31 00:19:54;;;;;;;8.13;5.40;;;;;;;;;;5102737;28;20196;-70
2022/10/31 00:22:20;;;;;;;7.35;5.78;;;;;;;;;;5102791;28;20204;-70
2022/10/31 00:24:48;;;;;;;6.78;5.75;;;;;;;;;;5102808;28;20239;-70
2022/10/31 00:27:14;;;;;;;8.95;5.55;;;;;;;;;;5103112;28;20210;-70
2022/10/31 00:29:40;;;;;;;12.18;5.47;;;;;;;;;;5102522;28;20203;-70
2022/10/31 00:32:07;;;;;;;9.35;5.63;;;;;;;;;;5102896;28;20205;-70
2022/10/31 00:34:33;;;;;;;8.25;5.82;;;;;;;;;;5103160;28;20408;-70
2022/10/31 00:36:59;;;;;;;9.90;5.82;;;;;;;;;;5103123;28;20195;-70
2022/10/31 00:39:26;;;;;;;10.73;5.65;;;;;;;;;;5102508;28;20204;-70
2022/10/31 00:41:53;;;;;;;14.18;5.30;;;;;;;;;;5102858;28;20529;-70
2022/10/31 00:44:19;;;;;;;14.43;5.30;;;;;;;;;;5103144;28;20196;-70
2022/10/31 00:46:46;;;;;;;13.52;5.72;;;;;;;;;;5103674;28;20196;-70
2022/10/31 00:49:12;;;;;;;10.70;5.30;;;;;;;;;;5102689;28;20195;-70
2022/10/31 00:51:38;;;;;;;8.35;5.57;;;;;;;;;;5102466;28;20216;-70
2022/10/31 00:54:05;;;;;;;7.28;4.70;;;;;;;;;;5102460;28;20203;-70
2022/10/31 00:56:31;;;;;;;7.20;5.43;;;;;;;;;;5101848;28;20203;-70
2022/10/31 00:58:58;;;;;;;15.13;5.15;;;;;;;;;;5102444;28;20195;-70
2022/10/31 01:01:25;;;;;;;7.88;5.40;;;;;;;;;;5102366;28;20253;-70
2022/10/31 01:03:51;;;;;;;8.02;4.75;;;;;;;;;;5102302;28;20333;-70
2022/10/31 01:06:17;;;;;;;8.10;4.68;;;;;;;;;;5102339;28;20195;-70
2022/10/31 01:08:44;;;;;;;8.45;4.90;;;;;;;;;;5102154;28;20202;-70
2022/10/31 01:11:11;;;;;;;8.93;4.78;;;;;;;;;;5102040;28;20607;-70
2022/10/31 01:13:38;;;;;;;9.73;4.53;;;;;;;;;;5101967;28;20203;-70
2022/10/31 01:16:07;;;;;;;7.63;4.97;;;;;;;;;;5102181;28;20506;-70
2022/10/31 01:18:34;;;;;;;12.68;5.13;;;;;;;;;;5102152;28;20397;-70
2022/10/31 01:21:01;;;;;;;12.40;4.65;;;;;;;;;;5102109;28;20398;-70
2022/10/31 01:23:27;;;;;;;8.32;4.88;;;;;;;;;;5101841;28;20203;-70
2022/10/31 01:26:00;;;;;;;12.52;5.10;;;;;;;;;;5101952;28;20199;-70
2022/10/31 01:28:27;;;;;;;7.60;4.30;;;;;;;;;;5102099;28;20260;-70
2022/10/31 01:30:53;;;;;;;10.38;5.78;;;;;;;;;;5102403;28;20584;-70
2022/10/31 01:33:20;;;;;;;12.00;5.72;;;;;;;;;;5102220;28;20196;-70
2022/10/31 01:35:47;;;;;;;15.35;4.90;;;;;;;;;;5102335;28;20203;-70
2022/10/31 01:38:13;;;;;;;9.98;4.97;;;;;;;;;;5101481;28;20208;-70
2022/10/31 01:40:39;;;;;;;11.35;5.30;;;;;;;;;;5102003;28;20518;-70
2022/10/31 01:43:06;;;;;;;8.77;4.80;;;;;;;;;;5101955;28;20206;-70
2022/10/31 01:45:32;;;;;;;9.00;4.70;;;;;;;;;;5101733;28;20205;-70
2022/10/31 01:47:58;;;;;;;16.95;5.47;;;;;;;;;;5101670;28;20201;-70
2022/10/31 01:50:32;;;;;;;7.40;4.88;;;;;;;;;;5101685;28;20224;-70
2022/10/31 01:52:58;;;;;;;7.22;4.55;;;;;;;;;;5101688;28;20207;-70
2022/10/31 01:55:26;;;;;;;9.93;5.18;;;;;;;;;;5101475;28;20206;-70
2022/10/31 01:57:54;;;;;;;12.57;5.07;;;;;;;;;;5101564;28;20202;-70
2022/10/31 02:00:21;;;;;;;7.93;5.13;;;;;;;;;;5101613;28;20196;-70
2022/10/31 02:02:49;;;;;;;8.65;5.13;;;;;;;;;;5101822;28;20554;-70
2022/10/31 02:05:16;;;;;;;8.70;4.57;;;;;;;;;;5101525;28;20202;-70
2022/10/31 02:07:46;;;;;;;10.27;4.97;;;;;;;;;;5101411;28;20202;-70
2022/10/31 02:10:13;;;;;;;8.63;4.65;;;;;;;;;;5105565;28;20203;-70
2022/10/31 02:12:40;;;;;;;6.47;4.22;;;;;;;;;;5105501;28;20205;-70
2022/10/31 02:15:07;;;;;;;11.23;4.78;;;;;;;;;;5105368;28;20196;-70
2022/10/31 02:17:33;;;;;;;10.57;4.65;;;;;;;;;;5105430;28;20375;-70
2022/10/31 02:20:05;;;;;;;4.80;4.40;;;;;;;;;;5105118;28;20199;-70
2022/10/31 02:22:38;;;;;;;6.57;4.60;;;;;;;;;;5104989;28;20191;-70
2022/10/31 02:25:14;;;;;;;6.53;4.55;;;;;;;;;;5105166;28;20196;-70
2022/10/31 02:27:56;;;;;;;10.07;5.15;;;;;;;;;;5104217;28;20252;-70
2022/10/31 02:30:23;;;;;;;10.15;4.70;;;;;;;;;;5104933;28;20200;-70
2022/10/31 02:32:55;;;;;;;5.97;4.65;;;;;;;;;;5104965;28;20210;-70
2022/10/31 02:35:27;;;;;;;6.25;5.07;;;;;;;;;;5105018;28;20200;-70
2022/10/31 02:37:57;;;;;;;5.15;4.28;;;;;;;;;;5104535;28;20245;-70
2022/10/31 02:40:26;;;;;;;8.70;5.07;;;;;;;;;;5104781;28;20195;-70
2022/10/31 02:42:59;;;;;;;4.95;3.78;;;;;;;;;;5104937;28;20203;-70
2022/10/31 02:45:28;;;;;;;7.97;4.25;;;;;;;;;;5105054;28;20347;-70
2022/10/31 02:47:59;;;;;;;6.53;4.25;;;;;;;;;;5104655;28;20393;-70
2022/10/31 02:50:27;;;;;;;5.30;4.40;;;;;;;;;;5105037;28;20366;-70
2022/10/31 02:52:54;;;;;;;8.18;4.65;;;;;;;;;;5104476;28;20196;-70
2022/10/31 02:55:39;;;;;;;7.43;4.53;;;;;;;;;;5104534;28;20226;-70
2022/10/31 02:58:09;;;;;;;7.93;4.40;;;;;;;;;;5104332;28;20200;-70
2022/10/31 03:00:38;;;;;;;9.57;4.82;;;;;;;;;;5104668;28;20207;-70
2022/10/31 03:03:09;;;;;;;7.38;4.80;;;;;;;;;;5104367;28;20196;-70
2022/10/31 03:05:44;;;;;;;7.95;4.30;;;;;;;;;;5104293;28;20196;-70
2022/10/31 03:08:15;;;;;;;5.38;4.63;;;;;;;;;;5104352;28;20195;-70
2022/10/31 03:10:44;;;;;;;11.95;4.97;;;;;;;;;;5104423;28;20195;-70
2022/10/31 03:13:12;;;;;;;6.32;4.60;;;;;;;;;;5104309;28;20199;-70
2022/10/31 03:15:39;;;;;;;9.60;4.97;;;;;;;;;;5104172;28;20203;-70
2022/10/31 03:18:08;;;;;;;7.68;4.50;;;;;;;;;;5103825;28;20503;-70
2022/10/31 03:20:38;;;;;;;5.70;4.28;;;;;;;;;;5103954;28;20195;-70
2022/10/31 03:23:05;;;;;;;9.50;4.82;;;;;;;;;;5104277;28;20270;-70
2022/10/31 03:25:32;;;;;;;5.78;4.65;;;;;;;;;;5104042;28;20210;-70
2022/10/31 03:28:00;;;;;;;4.70;4.30;;;;;;;;;;5104199;28;20215;-70
2022/10/31 03:30:27;;;;;;;6.35;4.68;;;;;;;;;;5103944;28;20195;-70
2022/10/31 03:32:55;;;;;;;8.23;5.03;;;;;;;;;;5103808;28;20231;-70
2022/10/31 03:35:24;;;;;;;5.88;4.60;;;;;;;;;;5104050;28;20196;-70
2022/10/31 03:37:52;;;;;;;9.07;4.68;;;;;;;;;;5103402;28;20215;-70
2022/10/31 03:40:19;;;;;;;9.18;4.53;;;;;;;;;;5103842;28;20195;-70
2022/10/31 03:42:49;;;;;;;7.63;4.10;;;;;;;;;;5103778;28;20513;-70
2022/10/31 03:45:16;;;;;;;12.20;5.13;;;;;;;;;;5103691;28;20453;-70
2022/10/31 03:47:44;;;;;;;9.98;4.97;;;;;;;;;;5103565;28;20503;-70
2022/10/31 03:50:11;;;;;;;8.85;4.95;;;;;;;;;;5103331;28;20273;-70
2022/10/31 03:52:42;;;;;;;7.82;4.78;;;;;;;;;;5103468;28;20219;-70
2022/10/31 03:55:10;;;;;;;6.40;4.40;;;;;;;;;;5103548;28;20498;-70
2022/10/31 03:57:40;;;;;;;9.30;4.65;;;;;;;;;;5102954;28;20196;-70
2022/10/31 04:00:08;;;;;;;7.07;4.68;;;;;;;;;;5103512;28;20200;-70
2022/10/31 04:02:35;;;;;;;9.15;5.20;;;;;;;;;;5103409;28;20364;-70
2022/10/31 04:05:01;;;;;;;9.23;4.93;;;;;;;;;;5103255;28;20526;-70
2022/10/31 04:07:30;;;;;;;13.65;5.53;;;;;;;;;;5103203;28;20203;-70
2022/10/31 04:09:59;;;;;;;5.97;4.45;;;;;;;;;;5102893;28;20195;-70
2022/10/31 04:12:27;;;;;;;9.88;4.88;;;;;;;;;;5102902;28;20215;-70
2022/10/31 04:14:53;;;;;;;6.15;4.45;;;;;;;;;;5102922;28;20204;-70
2022/10/31 04:17:22;;;;;;;7.75;4.90;;;;;;;;;;5103165;28;20203;-70
2022/10/31 04:19:48;;;;;;;8.77;4.97;;;;;;;;;;5102699;28;20203;-70
2022/10/31 04:22:14;;;;;;;11.63;5.13;;;;;;;;;;5102933;28;20201;-70
2022/10/31 04:24:41;;;;;;;5.55;4.60;;;;;;;;;;5102768;28;20195;-70
2022/10/31 04:27:08;;;;;;;9.73;5.00;;;;;;;;;;5102817;28;20200;-70
2022/10/31 04:29:35;;;;;;;10.48;5.50;;;;;;;;;;5103617;28;20234;-70
2022/10/31 04:32:01;;;;;;;6.53;4.80;;;;;;;;;;5102975;28;20394;-70
2022/10/31 04:34:27;;;;;;;6.47;5.05;;;;;;;;;;5103333;28;20202;-70
2022/10/31 04:36:54;;;;;;;7.13;4.50;;;;;;;;;;5103567;28;20226;-70
2022/10/31 04:39:20;;;;;;;9.02;4.70;;;;;;;;;;5103573;28;20372;-70
2022/10/31 04:41:46;;;;;;;7.13;4.95;;;;;;;;;;5103541;28;20199;-70
2022/10/31 04:44:14;;;;;;;6.03;5.18;;;;;;;;;;5103646;28;20542;-70
2022/10/31 04:46:40;;;;;;;15.48;5.55;;;;;;;;;;5103246;28;20527;-70
2022/10/31 04:49:06;;;;;;;7.95;5.20;;;;;;;;;;5102578;28;20196;-70
2022/10/31 04:51:32;;;;;;;7.82;5.15;;;;;;;;;;5102845;28;20253;-70
2022/10/31 04:53:59;;;;;;;14.70;5.30;;;;;;;;;;5102455;28;20400;-70
2022/10/31 04:56:25;;;;;;;8.88;5.53;;;;;;;;;;5102730;28;20428;-69
2022/10/31 04:58:51;;;;;;;7.40;4.95;;;;;;;;;;5102653;28;20202;-69
2022/10/31 05:01:19;;;;;;;8.52;5.68;;;;;;;;;;5102617;28;20202;-69
2022/10/31 05:03:45;;;;;;;8.20;4.90;;;;;;;;;;5102325;28;20195;-69
2022/10/31 05:06:11;;;;;;;12.57;5.35;;;;;;;;;;5102526;28;20203;-71
2022/10/31 05:08:38;;;;;;;18.02;5.90;;;;;;;;;;5102148;28;20525;-71
2022/10/31 05:11:04;;;;;;;7.55;5.80;;;;;;;;;;5102906;28;20195;-71
2022/10/31 05:13:30;;;;;;;8.15;5.28;;;;;;;;;;5102049;28;20220;-71
2022/10/31 05:15:57;;;;;;;12.70;5.95;;;;;;;;;;5102182;28;20200;-71
2022/10/31 05:18:24;;;;;;;8.65;5.32;;;;;;;;;;5101834;28;20201;-71
2022/10/31 05:20:50;;;;;;;10.27;5.15;;;;;;;;;;5102108;28;20196;-71
2022/10/31 05:23:17;;;;;;;13.80;5.85;;;;;;;;;;5102146;28;20207;-71
2022/10/31 05:25:43;;;;;;;10.73;5.65;;;;;;;;;;5102122;28;20372;-71
2022/10/31 05:28:09;;;;;;;8.15;5.30;;;;;;;;;;5101936;28;20223;-71
2022/10/31 05:30:36;;;;;;;10.55;5.95;;;;;;;;;;5101974;28;20193;-71
2022/10/31 05:33:02;;;;;;;10.70;5.68;;;;;;;;;;5101877;28;20404;-71
2022/10/31 05:35:30;;;;;;;7.32;4.82;;;;;;;;;;5101759;28;20196;-71
2022/10/31 05:37:57;;;;;;;10.05;5.40;;;;;;;;;;5101788;28;20565;-70
2022/10/31 05:40:24;;;;;;;5.47;4.72;;;;;;;;;;5101828;28;20544;-71
2022/10/31 05:42:52;;;;;;;6.95;4.75;;;;;;;;;;5104117;28;20191;-71
2022/10/31 05:45:19;;;;;;;12.85;5.25;;;;;;;;;;5106520;28;20196;-73
2022/10/31 05:47:50;;;;;;;6.72;4.95;;;;;;;;;;5106167;28;20199;-73
2022/10/31 05:50:17;;;;;;;11.30;4.90;;;;;;;;;;5105833;28;20204;-73
2022/10/31 05:52:44;;;;;;;8.02;4.97;;;;;;;;;;5105842;28;20219;-73
2022/10/31 05:55:11;;;;;;;8.85;4.57;;;;;;;;;;5105848;28;20388;-73
2022/10/31 05:57:37;;;;;;;9.00;5.32;;;;;;;;;;5101980;28;20511;-73
2022/10/31 06:00:04;;;;;;;8.18;4.90;;;;;;;;;;5104482;28;20274;-73
2022/10/31 06:02:34;;;;;;;14.60;8.20;;;;;;;;;;5105158;28;20517;-73
2022/10/31 06:05:00;;;;;;;8.27;5.05;;;;;;;;;;5105816;28;20211;-73
2022/10/31 06:07:26;;;;;;;8.23;4.55;;;;;;;;;;5105645;28;20246;-73
2022/10/31 06:09:54;;;;;;;7.90;4.75;;;;;;;;;;5105234;28;20199;-73
2022/10/31 06:12:20;;;;;;;7.00;4.85;;;;;;;;;;5105348;28;20227;-74
2022/10/31 06:14:46;;;;;;;5.60;4.68;;;;;;;;;;5106376;28;20203;-64
2022/10/31 06:17:13;;;;;;;7.15;5.00;;;;;;;;;;5108729;28;20196;-63
2022/10/31 06:19:39;;;;;;;13.18;5.38;;;;;;;;;;5108110;28;20518;-64
2022/10/31 06:22:05;;;;;;;5.22;4.68;;;;;;;;;;5108947;28;20200;-63
2022/10/31 06:24:31;;;;;;;7.32;4.53;;;;;;;;;;5109673;28;20200;-63
2022/10/31 06:26:59;;;;;;;8.13;4.55;;;;;;;;;;5109322;28;20203;-63
2022/10/31 06:29:25;;;;;;;6.30;4.65;;;;;;;;;;5108955;28;20220;-63
2022/10/31 06:31:52;;;;;;;8.52;4.75;;;;;;;;;;5108372;28;20215;-62
2022/10/31 06:34:18;;;;;;;11.45;4.75;;;;;;;;;;5108607;28;20196;-63
2022/10/31 06:36:46;;;;;;;9.20;5.57;;;;;;;;;;5108964;28;20204;-62
2022/10/31 06:39:12;;;;;;;10.13;5.10;;;;;;;;;;5108620;28;20203;-62
2022/10/31 06:41:39;;;;;;;6.88;5.07;;;;;;;;;;5109469;28;20495;-62
2022/10/31 06:44:07;;;;;;;6.53;4.72;;;;;;;;;;5108604;28;20226;-63
2022/10/31 06:46:33;;;;;;;11.40;5.63;;;;;;;;;;5108517;28;20199;-63
2022/10/31 06:49:00;;;;;;;11.63;5.68;;;;;;;;;;5108048;28;20269;-63
2022/10/31 06:51:26;;;;;;;9.57;5.25;;;;;;;;;;5107890;28;20222;-63
2022/10/31 06:53:52;;;;;;;7.18;4.68;;;;;;;;;;5107671;28;20526;-63
2022/10/31 06:56:19;;;;;;;7.15;5.10;;;;;;;;;;5108893;28;20203;-63
2022/10/31 06:58:45;;;;;;;6.20;4.90;;;;;;;;;;5107858;28;20192;-63
2022/10/31 07:01:12;;;;;;;10.23;5.57;;;;;;;;;;5108435;28;20207;-63
2022/10/31 07:03:39;;;;;;;10.48;6.00;;;;;;;;;;5108780;28;20502;-63
2022/10/31 07:06:05;;;;;;;9.85;5.97;;;;;;;;;;5109479;28;20337;-63
2022/10/31 07:08:31;;;;;;;14.48;5.07;;;;;;;;;;5108602;28;20199;-63
2022/10/31 07:10:58;;;;;;;13.30;5.38;;;;;;;;;;5108726;28;20398;-63
2022/10/31 07:13:25;;;;;;;13.13;5.45;;;;;;;;;;5109081;28;20268;-62
2022/10/31 07:15:52;;;;;;;17.80;5.82;;;;;;;;;;5109316;28;20218;-63
2022/10/31 07:18:20;;;;;;;13.13;5.25;;;;;;;;;;5108770;28;20202;-62
2022/10/31 07:20:46;;;;;;;14.77;6.05;;;;;;;;;;5108337;28;20202;-62
2022/10/31 07:23:12;;;;;;;18.35;6.13;;;;;;;;;;5107689;28;20499;-63
2022/10/31 07:25:39;;;;;;;12.68;6.28;;;;;;;;;;5108064;28;20224;-62
2022/10/31 07:28:05;;;;;;;15.98;6.80;;;;;;;;;;5108280;28;20222;-62
2022/10/31 07:30:32;;;;;;;11.23;6.25;;;;;;;;;;5107709;28;20497;-63
2022/10/31 07:32:58;;;;;;;11.65;5.97;;;;;;;;;;5107749;28;20224;-63
2022/10/31 07:35:27;;;;;;;13.30;6.20;;;;;;;;;;5107447;28;20202;-63
2022/10/31 07:37:54;;;;;;;13.27;5.95;;;;;;;;;;5106680;28;20203;-63
2022/10/31 07:40:21;;;;;;;11.00;6.20;;;;;;;;;;5107671;28;20469;-63
2022/10/31 07:42:48;;;;;;;15.82;6.32;;;;;;;;;;5107889;28;20363;-62
2022/10/31 07:45:15;;;;;;;13.57;6.68;;;;;;;;;;5107550;28;20313;-63
2022/10/31 07:47:42;;;;;;;8.30;6.35;;;;;;;;;;5107112;28;20202;-63
2022/10/31 07:50:09;;;;;;;11.27;6.63;;;;;;;;;;5107420;28;20195;-63
2022/10/31 07:52:36;;;;;;;11.98;7.03;;;;;;;;;;5106973;28;20218;-63
2022/10/31 07:55:03;;;;;;;17.40;6.78;;;;;;;;;;5106806;28;20200;-62
2022/10/31 07:57:29;;;;;;;18.00;7.25;;;;;;;;;;5105963;28;20241;-63
2022/10/31 07:59:55;;;;;;;15.13;7.18;;;;;;;;;;5106582;28;20195;-63
2022/10/31 08:02:22;;;;;;;13.93;6.05;;;;;;;;;;5106620;28;20192;-63
2022/10/31 08:04:48;;;;;;;14.73;6.20;;;;;;;;;;5107000;28;20398;-63
2022/10/31 08:07:14;;;;;;;12.48;6.22;;;;;;;;;;5105614;28;20202;-63
2022/10/31 08:09:42;;;;;;;15.82;6.60;;;;;;;;;;5106817;28;20195;-62
2022/10/31 08:12:08;;;;;;;20.65;7.05;;;;;;;;;;5106726;28;20206;-63
2022/10/31 08:14:35;;;;;;;12.90;7.25;;;;;;;;;;5106423;28;20196;-63
2022/10/31 08:17:01;;;;;;;12.40;6.80;;;;;;;;;;5106204;28;20199;-63
2022/10/31 08:19:27;;;;;;;13.10;6.75;;;;;;;;;;5105502;28;20195;-63
2022/10/31 08:21:54;;;;;;;12.50;6.57;;;;;;;;;;5106627;28;20489;-63
2022/10/31 08:24:21;;;;;;;21.77;7.70;;;;;;;;;;5106734;28;20195;-63
2022/10/31 08:26:48;;;;;;;14.32;7.00;;;;;;;;;;5107380;28;20195;-63
2022/10/31 08:29:15;;;;;;;14.45;6.60;;;;;;;;;;5106115;28;20216;-63
2022/10/31 08:31:41;;;;;;;13.98;5.97;;;;;;;;;;5106075;28;20196;-63
2022/10/31 08:34:08;;;;;;;12.40;5.70;;;;;;;;;;5106010;28;20222;-63
2022/10/31 08:36:34;;;;;;;7.78;5.32;;;;;;;;;;5106988;28;20196;-63
2022/10/31 08:39:01;;;;;;;9.13;5.53;;;;;;;;;;5106366;28;20203;-63
2022/10/31 08:41:27;;;;;;;8.57;5.65;;;;;;;;;;5107389;28;20248;-63
2022/10/31 08:43:54;;;;;;;10.80;5.60;;;;;;;;;;5106528;28;20199;-62
2022/10/31 08:46:21;;;;;;;13.93;5.53;;;;;;;;;;5106241;28;20187;-63
2022/10/31 08:48:48;;;;;;;14.55;5.78;;;;;;;;;;5105364;28;20195;-63
2022/10/31 08:51:14;;;;;;;9.35;5.75;;;;;;;;;;5105686;28;20207;-63
2022/10/31 08:53:40;;;;;;;12.85;5.20;;;;;;;;;;5104965;28;20219;-63
2022/10/31 08:56:07;;;;;;;13.60;5.50;;;;;;;;;;5104135;28;20196;-63
2022/10/31 08:58:33;;;;;;;13.10;5.88;;;;;;;;;;5104917;28;20390;-63
2022/10/31 09:01:01;;;;;;;12.20;5.63;;;;;;;;;;5104908;28;20200;-63
2022/10/31 09:03:28;;;;;;;8.43;5.10;;;;;;;;;;5104774;28;20192;-63
2022/10/31 09:05:56;;;;;;;14.00;5.20;;;;;;;;;;5104122;28;20205;-63
2022/10/31 09:08:22;;;;;;;13.90;5.57;;;;;;;;;;5104122;28;20211;-63
2022/10/31 09:10:48;;;;;;;10.70;5.30;;;;;;;;;;5104710;28;20370;-63
2022/10/31 09:13:16;;;;;;;11.27;4.90;;;;;;;;;;5104610;28;20224;-63
2022/10/31 09:15:43;;;;;;;10.52;5.43;;;;;;;;;;5104202;28;20495;-63
2022/10/31 09:18:11;;;;;;;8.82;4.88;;;;;;;;;;5103950;28;20265;-63
2022/10/31 09:20:38;;;;;;;11.68;5.05;;;;;;;;;;5104250;28;20196;-63
2022/10/31 09:23:05;;;;;;;9.07;4.90;;;;;;;;;;5104934;28;20196;-63
2022/10/31 09:25:33;;;;;;;11.65;4.70;;;;;;;;;;5105126;28;20218;-63
2022/10/31 09:27:59;;;;;;;11.35;4.47;;;;;;;;;;5103507;28;20216;-63
2022/10/31 09:30:26;;;;;;;9.07;4.75;;;;;;;;;;5103473;28;20202;-63
2022/10/31 09:32:55;;;;;;;9.40;5.07;;;;;;;;;;5103206;28;20215;-63
2022/10/31 09:35:23;;;;;;;15.20;5.30;;;;;;;;;;5103256;28;20238;-63
2022/10/31 09:37:54;;;;;;;6.75;4.38;;;;;;;;;;5103573;28;20218;-63
2022/10/31 09:40:20;;;;;;;15.65;5.53;;;;;;;;;;5104466;28;20479;-62
2022/10/31 09:42:52;;;;;;;11.98;5.28;;;;;;;;;;5104119;28;20218;-63
2022/10/31 09:45:21;;;;;;;6.65;4.65;;;;;;;;;;5103501;28;20203;-63
2022/10/31 09:47:53;;;;;;;8.93;5.35;;;;;;;;;;5102683;28;20202;-63
2022/10/31 09:50:21;;;;;;;7.60;4.85;;;;;;;;;;5103199;28;20332;-63
2022/10/31 09:53:03;;;;;;;8.23;4.53;;;;;;;;;;5102932;28;20204;-63
2022/10/31 09:55:35;;;;;;;7.60;4.72;;;;;;;;;;5103287;28;20190;-63
2022/10/31 09:58:01;;;;;;;10.02;4.65;;;;;;;;;;5102917;28;20196;-63
2022/10/31 10:00:28;;;;;;;10.40;5.38;;;;;;;;;;5103253;28;20204;-63
2022/10/31 10:02:57;;;;;;;15.75;9.63;;;;;;;;;;5102901;28;20421;-63
2022/10/31 10:05:27;;;;;;;11.77;5.50;;;;;;;;;;5102948;28;20202;-63
2022/10/31 10:07:59;;;;;;;15.82;8.52;;;;;;;;;;5103048;28;20188;-63
2022/10/31 10:10:28;;;;;;;8.98;5.25;;;;;;;;;;5102913;28;20202;-62
2022/10/31 10:13:14;;;;;;;10.82;5.60;;;;;;;;;;5102839;28;20204;-63
2022/10/31 10:15:48;;;;;;;10.57;6.47;;;;;;;;;;5102888;28;20209;-63
2022/10/31 10:18:20;;;;;;;7.72;5.18;;;;;;;;;;5093618;28;20223;-63
2022/10/31 10:21:04;;;;;;;14.75;6.55;;;;;;;;;;5097324;28;20526;-63
2022/10/31 10:23:36;;;;;;;7.22;5.00;;;;;;;;;;5098011;28;20558;-63
2022/10/31 10:26:07;;;;;;;10.45;5.63;;;;;;;;;;5098022;28;20207;-63
2022/10/31 10:28:38;;;;;;;13.73;6.70;;;;;;;;;;5099543;28;20220;-63
2022/10/31 10:31:06;;;;;;;7.57;5.60;;;;;;;;;;5096192;28;20227;-62
2022/10/31 10:33:33;;;;;;;11.85;5.03;;;;;;;;;;5100028;28;20230;-62
2022/10/31 10:36:01;;;;;;;14.70;6.57;;;;;;;;;;5095482;28;20218;-62
2022/10/31 10:38:30;;;;;;;13.18;5.93;;;;;;;;;;5093131;28;20224;-62
2022/10/31 10:40:59;;;;;;;16.90;5.90;;;;;;;;;;5085550;28;20212;-61
2022/10/31 10:43:27;;;;;;;9.18;5.75;;;;;;;;;;5099792;28;20330;-62
2022/10/31 10:48:43;;;;;;;10.63;6.00;;;;;;;;;;5092769;28;20228;-63
2022/10/31 10:51:16;;;;;;;10.27;5.20;;;;;;;;;;5102022;28;20224;-63
2022/10/31 10:54:00;;;;;;;10.23;5.28;;;;;;;;;;5101612;28;20228;-63
2022/10/31 10:56:34;;;;;;;14.07;5.28;;;;;;;;;;5100559;28;20271;-63
2022/10/31 10:59:00;;;;;;;12.52;5.85;;;;;;;;;;5100182;28;20227;-63
2022/10/31 11:01:26;;;;;;;13.48;6.30;;;;;;;;;;5101409;28;20562;-63
2022/10/31 11:03:53;;;;;;;16.98;5.68;;;;;;;;;;5102038;28;20515;-63
2022/10/31 11:06:22;;;;;;;9.85;5.47;;;;;;;;;;5101249;28;20208;-63
2022/10/31 11:08:48;;;;;;;12.88;6.25;;;;;;;;;;5100241;28;20207;-63
2022/10/31 11:11:20;;;;;;;9.20;6.20;;;;;;;;;;5100532;28;20208;-63
2022/10/31 11:13:49;;;;;;;11.10;5.78;;;;;;;;;;5100674;28;20239;-63
2022/10/31 11:16:16;;;;;;;9.88;5.55;;;;;;;;;;5100318;28;20234;-63
2022/10/31 11:18:43;;;;;;;6.32;5.03;;;;;;;;;;5099119;28;20218;-63
2022/10/31 11:21:21;;;;;;;12.73;6.03;;;;;;;;;;5099321;28;20208;-63
2022/10/31 11:23:47;;;;;;;6.50;5.45;;;;;;;;;;5099592;28;20196;-63
2022/10/31 11:26:19;;;;;;;9.07;5.50;;;;;;;;;;5099117;28;20207;-63
2022/10/31 11:28:56;;;;;;;11.98;6.80;;;;;;;;;;5098193;28;20227;-63
2022/10/31 11:31:24;;;;;;;11.65;5.22;;;;;;;;;;5098937;28;20406;-63
2022/10/31 11:33:53;;;;;;;12.43;5.65;;;;;;;;;;5098555;28;20709;-63
2022/10/31 11:36:23;;;;;;;13.38;6.45;;;;;;;;;;5098706;28;20211;-63
2022/10/31 11:38:50;;;;;;;7.25;5.65;;;;;;;;;;5098396;28;20538;-63
2022/10/31 11:41:18;;;;;;;8.40;5.65;;;;;;;;;;5097913;28;20218;-63
2022/10/31 11:43:47;;;;;;;11.68;6.38;;;;;;;;;;5098256;28;20515;-63
2022/10/31 11:46:16;;;;;;;10.55;5.90;;;;;;;;;;5098168;28;20423;-63
2022/10/31 11:48:47;;;;;;;15.55;6.57;;;;;;;;;;5097568;28;20215;-63
2022/10/31 11:51:13;;;;;;;12.07;6.13;;;;;;;;;;5098131;28;20208;-63
2022/10/31 11:53:50;;;;;;;11.05;5.95;;;;;;;;;;5098230;28;20231;-63
2022/10/31 11:56:17;;;;;;;9.68;5.80;;;;;;;;;;5098137;28;20203;-63
2022/10/31 11:58:43;;;;;;;14.25;6.43;;;;;;;;;;5099380;28;20268;-62
2022/10/31 12:01:23;;;;;;;10.40;5.72;;;;;;;;;;5098937;28;20207;-62
2022/10/31 12:03:54;;;;;;;13.82;5.85;;;;;;;;;;5098381;28;20218;-61
2022/10/31 12:06:22;;;;;;;11.30;5.78;;;;;;;;;;5098186;28;20211;-61
2022/10/31 12:08:48;;;;;;;10.65;5.82;;;;;;;;;;5097684;28;20207;-62
2022/10/31 12:11:31;;;;;;;12.70;5.57;;;;;;;;;;5098814;28;20515;-62
2022/10/31 12:14:02;;;;;;;9.23;5.00;;;;;;;;;;5098840;28;20235;-63
2022/10/31 12:16:30;;;;;;;11.70;5.78;;;;;;;;;;5098915;28;20215;-62
2022/10/31 12:19:00;;;;;;;10.80;5.78;;;;;;;;;;5097958;28;20461;-62
2022/10/31 12:21:41;;;;;;;9.05;5.30;;;;;;;;;;5098568;28;20218;-62
2022/10/31 12:24:12;;;;;;;10.80;5.28;;;;;;;;;;5094439;28;20233;-62
2022/10/31 12:26:43;;;;;;;12.07;5.93;;;;;;;;;;5098625;28;20215;-63
2022/10/31 12:29:23;;;;;;;12.20;5.25;;;;;;;;;;5098913;28;20224;-62
2022/10/31 12:31:55;;;;;;;10.55;5.10;;;;;;;;;;5082146;28;20212;-61
2022/10/31 12:34:33;;;;;;;11.07;6.32;;;;;;;;;;5088360;28;20230;-62
2022/10/31 12:37:01;;;;;;;8.75;4.47;;;;;;;;;;5098074;28;20529;-62
2022/10/31 12:39:35;;;;;;;6.93;4.72;;;;;;;;;;5098493;28;20269;-62
2022/10/31 12:42:05;;;;;;;8.50;5.20;;;;;;;;;;5097400;28;20458;-62
2022/10/31 12:44:39;;;;;;;11.57;5.20;;;;;;;;;;5098963;28;20204;-62
2022/10/31 12:47:21;;;;;;;9.30;5.25;;;;;;;;;;5098577;28;20234;-62
2022/10/31 12:49:52;;;;;;;8.15;4.97;;;;;;;;;;5099741;28;20212;-63
2022/10/31 12:52:24;;;;;;;9.07;5.20;;;;;;;;;;5098675;28;20207;-63
2022/10/31 12:55:00;;;;;;;11.30;5.15;;;;;;;;;;5098931;28;20219;-63
2022/10/31 12:57:31;;;;;;;5.55;4.55;;;;;;;;;;5096768;28;20503;-64
2022/10/31 13:00:00;;;;;;;9.73;5.22;;;;;;;;;;5097252;28;20218;-63
2022/10/31 13:02:29;;;;;;;7.88;5.15;;;;;;;;;;5100188;28;20241;-62
2022/10/31 13:04:57;;;;;;;9.57;5.80;;;;;;;;;;5098048;28;20207;-63
2022/10/31 13:07:25;;;;;;;9.52;5.10;;;;;;;;;;5100611;28;20538;-62
2022/10/31 13:09:56;;;;;;;7.90;5.68;;;;;;;;;;5098952;28;20211;-63
2022/10/31 13:12:23;;;;;;;8.65;5.10;;;;;;;;;;5099292;28;20402;-62
2022/10/31 13:14:51;;;;;;;10.00;4.93;;;;;;;;;;5099590;28;20227;-62
2022/10/31 13:17:21;;;;;;;5.50;4.95;;;;;;;;;;5097975;28;20208;-63
2022/10/31 13:19:48;;;;;;;8.40;5.53;;;;;;;;;;5103026;28;20196;-63
2022/10/31 13:22:18;;;;;;;11.63;5.60;;;;;;;;;;5103468;28;20506;-62
2022/10/31 13:24:47;;;;;;;18.02;6.38;;;;;;;;;;5103670;28;20199;-62
2022/10/31 13:27:16;;;;;;;9.88;5.90;;;;;;;;;;5102956;28;20269;-63
2022/10/31 13:29:45;;;;;;;20.90;6.00;;;;;;;;;;5103065;28;20529;-63
2022/10/31 13:32:11;;;;;;;12.05;5.45;;;;;;;;;;5103043;28;20203;-63
2022/10/31 13:34:39;;;;;;;9.55;5.43;;;;;;;;;;5103578;28;20546;-63
2022/10/31 13:37:07;;;;;;;12.05;6.35;;;;;;;;;;5103817;28;20195;-63
2022/10/31 13:39:42;;;;;;;11.10;6.05;;;;;;;;;;5103010;28;20432;-63
2022/10/31 13:42:13;;;;;;;8.82;5.45;;;;;;;;;;5103296;28;20200;-63
2022/10/31 13:44:39;;;;;;;13.18;6.22;;;;;;;;;;5102495;28;20207;-63
2022/10/31 13:47:25;;;;;;;10.85;5.88;;;;;;;;;;5102889;28;20195;-63
2022/10/31 13:49:51;;;;;;;7.30;5.75;;;;;;;;;;5102052;28;20202;-63
2022/10/31 13:52:23;;;;;;;16.35;7.07;;;;;;;;;;5102393;28;20208;-62
2022/10/31 13:54:55;;;;;;;19.75;6.30;;;;;;;;;;5102436;28;20247;-62
2022/10/31 13:57:26;;;;;;;11.60;6.10;;;;;;;;;;5102923;28;20200;-62
2022/10/31 13:59:53;;;;;;;8.25;5.10;;;;;;;;;;5102285;28;20203;-62
2022/10/31 14:02:24;;;;;;;11.98;5.57;;;;;;;;;;5102534;28;20571;-62
2022/10/31 14:04:52;;;;;;;9.15;5.00;;;;;;;;;;5104306;28;20238;-62
2022/10/31 14:07:20;;;;;;;7.05;4.75;;;;;;;;;;5106336;28;20459;-62
2022/10/31 14:09:54;;;;;;;11.25;4.93;;;;;;;;;;5105947;28;20198;-62
2022/10/31 14:12:25;;;;;;;15.05;5.22;;;;;;;;;;5106369;28;20248;-62
2022/10/31 14:14:53;;;;;;;15.13;5.32;;;;;;;;;;5106285;28;20260;-62
2022/10/31 14:17:21;;;;;;;8.18;4.70;;;;;;;;;;5106354;28;20200;-62
2022/10/31 14:20:00;;;;;;;8.43;4.65;;;;;;;;;;5106138;28;20200;-62
2022/10/31 14:22:29;;;;;;;12.48;5.40;;;;;;;;;;5105920;28;20560;-62
2022/10/31 14:24:57;;;;;;;16.92;6.50;;;;;;;;;;5105621;28;20199;-62
2022/10/31 14:27:35;;;;;;;9.38;5.50;;;;;;;;;;5105922;28;20195;-62
2022/10/31 14:30:11;;;;;;;12.07;4.88;;;;;;;;;;5105889;28;20393;-62
2022/10/31 14:32:37;;;;;;;12.13;4.90;;;;;;;;;;5105976;28;20195;-62
2022/10/31 14:35:04;;;;;;;9.45;4.78;;;;;;;;;;5105935;28;20367;-62
2022/10/31 14:37:39;;;;;;;11.50;5.20;;;;;;;;;;5105743;28;20208;-62
2022/10/31 14:40:21;;;;;;;13.02;5.00;;;;;;;;;;5105408;28;20418;-62
2022/10/31 14:42:55;;;;;;;13.85;5.85;;;;;;;;;;5105571;28;20195;-62
2022/10/31 14:45:26;;;;;;;15.73;4.90;;;;;;;;;;5105936;28;20199;-62